Grange City, Kentucky
Current Conditions -  °F | °C
As of 2:10 AM on Sunday 26 Oct 2014 (Local Time) from KSYM Reporting Station
Clear Clear  
Wind Chill: 59°   Ceiling: Unl
Heat Index: 59°   Visibility: 10mi
Dew Point: 54°   Wind: 6mph
Humidity: 82%   Direction: NA
Pressure: 29.96"   Gusts: 12mph
Location:  38.2838°N, 83.678°W
Report Text: KSYM 260610Z AUTO VRB05G10KT 10SM CLR 15/12 A2996 RMK AO2
Loading
Personal Weather Stations






























Interactive Weather Map
Tropical Storm Tracking
New forecast layout! Learn more

10-Day Weather Forecast

Advertisements
Track Severe Weather on mobile